Time;durP1;ratioP1;P1;durP2;ratioP2;P2;SDS_P1;SDS_P2;PMS_P1;PMS_P2;Temp;Humidity;BMP_temperature;BMP_pressure;BME280_temperature;BME280_humidity;BME280_pressure;Samples;Min_cycle;Max_cycle;Signal;HPM_P1;HPM_P2
2023/05/24 00:00:35;;;;;;;7.63;4.85;;;;;;;19.07;40.82;99905.78;5110634;27;20212;-67
2023/05/24 00:03:05;;;;;;;6.82;4.65;;;;;;;19.08;40.70;99906.66;5113908;28;20728;-69
2023/05/24 00:05:36;;;;;;;7.10;4.95;;;;;;;19.06;40.50;99910.16;5112884;27;20211;-69
2023/05/24 00:08:04;;;;;;;8.02;4.55;;;;;;;19.06;40.71;99911.94;5112697;28;20666;-68
2023/05/24 00:10:33;;;;;;;5.20;4.53;;;;;;;19.04;40.58;99905.97;5113541;27;20650;-69
2023/05/24 00:13:01;;;;;;;6.03;4.80;;;;;;;19.02;40.57;99906.03;5112969;28;20208;-68
2023/05/24 00:15:29;;;;;;;5.80;5.20;;;;;;;18.99;40.90;99908.78;5112020;28;20215;-67
2023/05/24 00:17:57;;;;;;;6.03;4.60;;;;;;;18.96;40.78;99913.31;5112512;27;20249;-69
2023/05/24 00:20:25;;;;;;;5.95;4.60;;;;;;;18.94;40.95;99905.56;5113086;28;20211;-68
2023/05/24 00:22:55;;;;;;;5.70;4.60;;;;;;;18.91;41.23;99897.03;5107297;27;20629;-68
2023/05/24 00:25:23;;;;;;;5.40;4.30;;;;;;;18.88;41.36;99897.16;5114106;28;20626;-70
2023/05/24 00:27:51;;;;;;;6.15;4.97;;;;;;;18.87;41.23;99896.31;5108326;27;20544;-68
2023/05/24 00:30:19;;;;;;;5.22;4.70;;;;;;;18.87;41.49;99904.16;5110758;28;20189;-69
2023/05/24 00:32:48;;;;;;;7.93;4.75;;;;;;;18.79;41.37;99885.41;5109506;27;20228;-69
2023/05/24 00:35:16;;;;;;;6.72;4.90;;;;;;;18.76;41.39;99896.84;5113913;28;20207;-70
2023/05/24 00:37:45;;;;;;;7.55;4.65;;;;;;;18.74;41.42;99893.47;5111712;28;20200;-69
2023/05/24 00:40:14;;;;;;;8.18;4.45;;;;;;;18.70;41.66;99878.81;5110703;28;20725;-71
2023/05/24 00:42:42;;;;;;;6.70;5.05;;;;;;;18.69;41.43;99890.19;5111168;28;20230;-67
2023/05/24 00:45:11;;;;;;;4.78;4.25;;;;;;;18.67;41.46;99889.44;5105840;28;20534;-67
2023/05/24 00:47:39;;;;;;;5.00;4.50;;;;;;;18.64;41.27;99892.19;5105180;27;20203;-69
2023/05/24 00:50:10;;;;;;;6.68;4.32;;;;;;;18.62;41.57;99883.56;5111886;28;20192;-72
2023/05/24 00:52:40;;;;;;;5.80;4.47;;;;;;;18.61;41.42;99892.31;5110288;28;20310;-70
2023/05/24 00:55:09;;;;;;;6.85;4.70;;;;;;;18.58;41.58;99882.00;5113786;28;20549;-69
2023/05/24 00:57:39;;;;;;;5.35;4.70;;;;;;;18.62;41.37;99887.94;5111526;28;20206;-68
2023/05/24 01:00:11;;;;;;;5.45;4.72;;;;;;;18.62;41.39;99888.78;5106979;28;20207;-68
2023/05/24 01:02:39;;;;;;;10.50;4.93;;;;;;;18.60;41.41;99888.03;5107346;28;20562;-68
2023/05/24 01:05:19;;;;;;;5.13;4.40;;;;;;;18.62;41.43;99885.31;5111509;28;20208;-69
2023/05/24 01:07:58;;;;;;;5.18;4.45;;;;;;;18.61;40.84;99881.03;5111646;27;20204;-69
2023/05/24 01:10:34;;;;;;;5.80;4.68;;;;;;;18.59;41.12;99883.69;5112095;28;20579;-68
2023/05/24 01:13:19;;;;;;;8.48;4.68;;;;;;;18.55;41.14;99885.59;5106446;28;20192;-69
2023/05/24 01:15:54;;;;;;;7.03;4.20;;;;;;;18.53;40.80;99874.41;5103819;27;20197;-70
2023/05/24 01:18:29;;;;;;;9.05;4.55;;;;;;;18.53;41.01;99878.78;5106145;28;21481;-69
2023/05/24 01:21:07;;;;;;;7.78;4.18;;;;;;;18.50;41.02;99886.75;5108324;28;20199;-69
2023/05/24 01:23:44;;;;;;;5.78;4.90;;;;;;;18.51;41.05;99891.88;5110003;28;20203;-68
2023/05/24 01:26:31;;;;;;;6.55;4.38;;;;;;;18.51;40.93;99893.66;5112004;28;20241;-68
2023/05/24 01:29:03;;;;;;;7.40;4.70;;;;;;;18.47;40.99;99887.72;5107849;28;20298;-68
2023/05/24 01:31:31;;;;;;;4.88;4.32;;;;;;;18.50;40.84;99897.19;5103287;27;20677;-69
2023/05/24 01:33:59;;;;;;;4.78;4.07;;;;;;;18.49;41.00;99898.97;5108337;28;20231;-68
2023/05/24 01:36:28;;;;;;;6.55;4.65;;;;;;;18.50;41.18;99899.81;5102085;28;20216;-68
2023/05/24 01:38:56;;;;;;;6.30;4.50;;;;;;;18.47;40.70;99894.72;5105062;28;20222;-69
2023/05/24 01:41:36;;;;;;;4.80;4.25;;;;;;;18.44;40.81;99894.84;5111062;28;20215;-69
2023/05/24 01:44:13;;;;;;;6.97;4.53;;;;;;;18.39;40.69;99891.63;5110045;28;20199;-68
2023/05/24 01:46:41;;;;;;;7.35;4.38;;;;;;;18.42;40.65;99894.09;5111632;28;20646;-68
2023/05/24 01:49:22;;;;;;;4.32;3.83;;;;;;;18.42;40.68;99894.09;5106751;28;20212;-67
2023/05/24 01:51:55;;;;;;;7.45;4.05;;;;;;;18.42;40.59;99897.56;5110536;28;20238;-68
2023/05/24 01:54:28;;;;;;;7.47;4.75;;;;;;;18.40;40.73;99899.38;5111655;28;20679;-69
2023/05/24 01:56:58;;;;;;;6.47;3.92;;;;;;;18.40;40.53;99898.53;5108831;28;20283;-71
2023/05/24 01:59:29;;;;;;;5.53;4.18;;;;;;;18.35;40.61;99891.75;5107738;28;20200;-68
2023/05/24 02:01:58;;;;;;;5.10;4.07;;;;;;;18.35;40.34;99896.13;5110247;28;20283;-69
2023/05/24 02:04:26;;;;;;;5.18;4.30;;;;;;;18.37;40.35;99899.50;5110070;28;20642;-68
2023/05/24 02:06:54;;;;;;;5.25;4.25;;;;;;;18.32;40.62;99902.34;5107020;28;20235;-67
2023/05/24 02:09:22;;;;;;;8.43;4.82;;;;;;;18.32;40.62;99902.34;5108861;27;20564;-68
2023/05/24 02:11:50;;;;;;;5.78;4.25;;;;;;;18.32;40.27;99901.50;5111534;28;20204;-69
2023/05/24 02:14:18;;;;;;;5.13;4.60;;;;;;;18.32;40.37;99907.53;5101605;28;20200;-67
2023/05/24 02:16:49;;;;;;;7.45;4.20;;;;;;;18.30;40.34;99904.19;5109368;28;20639;-67
2023/05/24 02:19:18;;;;;;;6.88;4.20;;;;;;;18.30;40.71;99901.56;5107901;28;20207;-68
2023/05/24 02:21:46;;;;;;;4.82;3.97;;;;;;;18.17;40.43;99881.34;5106622;28;20254;-68
2023/05/24 02:24:15;;;;;;;5.05;4.43;;;;;;;18.25;40.74;99900.06;5103010;27;20220;-68
2023/05/24 02:26:43;;;;;;;5.50;4.35;;;;;;;18.23;40.61;99904.53;5091950;28;20234;-68
2023/05/24 02:29:12;;;;;;;7.18;4.65;;;;;;;18.19;41.08;99902.94;5109873;28;20199;-68
2023/05/24 02:31:40;;;;;;;4.78;4.30;;;;;;;18.12;41.40;99905.00;5111072;28;20239;-68
2023/05/24 02:34:09;;;;;;;6.78;4.18;;;;;;;18.07;41.19;99907.81;5111411;28;20220;-68
2023/05/24 02:36:38;;;;;;;8.65;4.65;;;;;;;18.07;41.30;99906.97;5107341;27;20620;-67
2023/05/24 02:39:06;;;;;;;5.00;3.95;;;;;;;18.05;41.35;99906.19;5108263;27;20553;-68
2023/05/24 02:41:34;;;;;;;6.32;4.53;;;;;;;18.01;41.77;99902.88;5108024;28;20673;-68
2023/05/24 02:44:02;;;;;;;7.95;5.00;;;;;;;17.99;41.98;99901.25;5110504;28;20200;-70
2023/05/24 02:46:30;;;;;;;5.70;4.53;;;;;;;17.97;42.11;99905.66;5108050;28;20252;-68
2023/05/24 02:48:59;;;;;;;6.78;4.50;;;;;;;17.93;42.26;99904.13;5108828;28;20200;-68
2023/05/24 02:51:29;;;;;;;5.88;4.68;;;;;;;17.89;42.38;99897.34;5107905;28;20749;-68
2023/05/24 02:53:57;;;;;;;6.55;5.00;;;;;;;17.90;42.65;99901.66;5111385;28;20200;-69
2023/05/24 02:56:25;;;;;;;5.82;4.70;;;;;;;17.92;42.57;99902.44;5105705;28;20200;-68
2023/05/24 02:58:55;;;;;;;6.38;4.75;;;;;;;17.89;42.75;99900.78;5106690;28;20609;-70
2023/05/24 03:01:23;;;;;;;7.13;4.65;;;;;;;17.87;42.89;99894.81;5110678;28;20228;-69
2023/05/24 03:03:51;;;;;;;4.32;3.92;;;;;;;17.86;42.67;99914.84;5109587;28;20279;-69
2023/05/24 03:06:20;;;;;;;5.57;4.03;;;;;;;17.84;42.86;99907.97;5103065;28;20224;-67
2023/05/24 03:08:49;;;;;;;5.05;4.43;;;;;;;17.82;42.90;99910.66;5106500;28;20203;-69
2023/05/24 03:11:20;;;;;;;7.53;5.00;;;;;;;17.86;43.05;99916.59;5110215;28;20196;-68
2023/05/24 03:13:49;;;;;;;4.88;4.38;;;;;;;17.88;42.78;99917.34;5107980;28;20227;-69
2023/05/24 03:16:18;;;;;;;6.30;4.25;;;;;;;17.89;42.55;99915.59;5108859;28;20208;-68
2023/05/24 03:18:49;;;;;;;7.93;5.07;;;;;;;17.91;42.66;99913.78;5109253;28;20641;-67
2023/05/24 03:21:19;;;;;;;8.18;4.22;;;;;;;17.98;42.68;99918.66;5108389;28;20204;-68
2023/05/24 03:23:49;;;;;;;6.57;4.45;;;;;;;18.01;42.83;99907.25;5108632;28;20212;-67
2023/05/24 03:26:19;;;;;;;6.90;4.80;;;;;;;18.03;42.52;99921.91;5102567;28;20220;-67
2023/05/24 03:28:49;;;;;;;6.00;4.38;;;;;;;18.00;42.75;99913.38;5108415;28;20204;-68
2023/05/24 03:31:19;;;;;;;7.35;4.65;;;;;;;18.00;42.63;99926.41;5101549;28;20764;-70
2023/05/24 03:33:47;;;;;;;6.57;5.20;;;;;;;17.98;42.96;99923.88;5107586;28;20231;-68
2023/05/24 03:36:15;;;;;;;6.70;4.40;;;;;;;17.97;42.32;99918.69;5108047;28;20218;-69
2023/05/24 03:38:43;;;;;;;6.95;4.63;;;;;;;17.93;42.15;99924.97;5108732;28;20220;-69
2023/05/24 03:41:13;;;;;;;5.30;4.20;;;;;;;17.91;42.52;99921.59;5109032;28;20231;-68
2023/05/24 03:43:41;;;;;;;7.60;4.75;;;;;;;17.89;42.18;99924.25;5084165;28;20621;-68
2023/05/24 03:46:09;;;;;;;7.38;4.82;;;;;;;17.90;42.43;99925.13;5109360;28;20650;-68
2023/05/24 03:48:37;;;;;;;5.55;4.63;;;;;;;17.86;42.65;99925.25;5107327;28;20235;-69
2023/05/24 03:51:08;;;;;;;5.10;4.35;;;;;;;17.90;42.90;99930.34;5103902;28;20639;-69
2023/05/24 03:53:35;;;;;;;4.40;4.00;;;;;;;17.91;42.63;99937.25;5105523;28;20230;-67
2023/05/24 03:56:03;;;;;;;5.40;4.22;;;;;;;17.94;42.31;99935.34;5112736;27;20218;-68
2023/05/24 03:58:33;;;;;;;7.88;4.50;;;;;;;18.00;42.26;99940.28;5107653;28;20201;-69
2023/05/24 04:01:01;;;;;;;8.50;4.18;;;;;;;18.07;42.02;99944.31;5110437;27;20245;-69
2023/05/24 04:03:29;;;;;;;6.32;4.32;;;;;;;18.05;41.86;99945.31;5112730;28;20189;-69
2023/05/24 04:05:58;;;;;;;6.97;5.00;;;;;;;18.02;42.24;99945.44;5113539;28;20650;-69
2023/05/24 04:08:26;;;;;;;7.88;5.25;;;;;;;18.06;42.15;99947.00;5106597;27;20299;-68
2023/05/24 04:10:54;;;;;;;4.68;3.85;;;;;;;18.08;41.61;99934.75;5111903;28;20199;-69
2023/05/24 04:13:22;;;;;;;10.07;4.57;;;;;;;18.10;42.14;99943.34;5109997;27;20200;-70
2023/05/24 04:15:52;;;;;;;5.65;4.30;;;;;;;18.10;41.89;99952.00;5110362;28;20642;-69
2023/05/24 04:18:20;;;;;;;4.97;4.47;;;;;;;18.13;41.94;99947.56;5111518;28;20222;-69
2023/05/24 04:20:48;;;;;;;5.82;3.85;;;;;;;18.15;41.96;99951.78;5113030;28;20230;-68
2023/05/24 04:23:16;;;;;;;7.03;4.72;;;;;;;18.17;41.69;99956.97;5095111;28;20212;-68
2023/05/24 04:25:44;;;;;;;8.40;3.75;;;;;;;18.13;42.06;99958.00;5110501;27;20208;-68
2023/05/24 04:28:14;;;;;;;7.45;4.93;;;;;;;18.15;42.29;99966.59;5101838;28;20637;-68
2023/05/24 04:30:44;;;;;;;5.38;4.28;;;;;;;18.20;42.35;99962.03;5108231;27;20215;-70
2023/05/24 04:33:15;;;;;;;5.30;4.32;;;;;;;18.16;41.49;99968.31;5107413;28;20238;-68
2023/05/24 04:35:44;;;;;;;6.45;4.03;;;;;;;18.16;41.77;99971.75;5107291;28;20219;-69
2023/05/24 04:38:14;;;;;;;5.13;3.83;;;;;;;18.14;41.94;99975.34;5109044;28;20283;-69
2023/05/24 04:40:42;;;;;;;5.40;4.05;;;;;;;18.19;41.89;99973.38;5109399;28;20215;-69
2023/05/24 04:43:10;;;;;;;5.93;4.07;;;;;;;18.20;41.82;99965.50;5108288;28;20253;-69
2023/05/24 04:45:38;;;;;;;5.75;4.10;;;;;;;18.16;41.51;99974.38;5108734;27;20205;-73
2023/05/24 04:48:06;;;;;;;5.22;4.18;;;;;;;18.12;41.91;99970.22;5103573;27;20215;-68
2023/05/24 04:50:36;;;;;;;6.82;4.00;;;;;;;18.15;41.90;99966.59;5108541;28;20686;-67
2023/05/24 04:53:04;;;;;;;6.95;3.90;;;;;;;18.14;41.91;99981.41;5111128;28;20241;-66
2023/05/24 04:55:34;;;;;;;6.32;4.57;;;;;;;18.20;41.82;99975.91;5111076;28;20196;-66
2023/05/24 04:58:03;;;;;;;4.40;3.75;;;;;;;18.23;41.62;99977.56;5108241;28;20207;-66
2023/05/24 05:00:31;;;;;;;5.07;4.30;;;;;;;18.28;41.78;99989.47;5112178;28;20204;-66
2023/05/24 05:03:00;;;;;;;6.13;4.30;;;;;;;18.31;41.67;99983.28;5110266;28;20283;-65
2023/05/24 05:05:28;;;;;;;5.97;4.22;;;;;;;18.36;41.73;99981.28;5113147;28;20291;-66
2023/05/24 05:07:58;;;;;;;6.22;4.00;;;;;;;18.46;41.55;99985.19;5108808;28;20333;-66
2023/05/24 05:10:26;;;;;;;6.93;3.47;;;;;;;18.48;41.40;99982.50;5111638;28;20562;-66
2023/05/24 05:12:54;;;;;;;6.78;4.38;;;;;;;18.51;41.27;99979.75;5109158;28;20208;-67
2023/05/24 05:15:23;;;;;;;6.45;4.10;;;;;;;18.46;41.32;99981.75;5103864;28;20204;-69
2023/05/24 05:17:51;;;;;;;5.40;4.68;;;;;;;18.51;41.32;99988.44;5104446;28;20241;-67
2023/05/24 05:20:20;;;;;;;7.47;4.47;;;;;;;18.67;40.98;99991.22;5106552;28;20716;-68
2023/05/24 05:22:48;;;;;;;7.03;4.10;;;;;;;18.92;40.81;100000.53;5089420;28;20600;-68
2023/05/24 05:25:18;;;;;;;5.68;4.05;;;;;;;19.12;40.12;99995.22;5108496;28;20204;-67
2023/05/24 05:27:46;;;;;;;5.10;4.35;;;;;;;19.60;39.45;99993.75;5099810;27;20639;-68
2023/05/24 05:30:15;;;;;;;6.93;4.53;;;;;;;20.09;38.47;99996.53;5105798;28;20222;-67
2023/05/24 05:32:43;;;;;;;5.45;4.60;;;;;;;20.36;37.73;99994.28;5110065;28;20327;-69
2023/05/24 05:35:11;;;;;;;6.00;4.20;;;;;;;20.73;37.58;99998.41;5107927;28;20231;-68
2023/05/24 05:37:39;;;;;;;5.97;4.32;;;;;;;22.33;36.29;99992.72;5108976;28;20211;-67
2023/05/24 05:40:08;;;;;;;4.28;3.88;;;;;;;24.50;30.23;99985.56;5105615;28;20682;-67
2023/05/24 05:42:37;;;;;;;5.68;4.30;;;;;;;26.22;27.13;99988.75;5103303;28;20212;-67
2023/05/24 05:45:07;;;;;;;7.47;4.38;;;;;;;26.48;27.16;99984.91;5105523;28;20218;-69
2023/05/24 05:47:36;;;;;;;6.03;4.10;;;;;;;25.83;27.60;99993.47;5098379;28;20606;-67
2023/05/24 05:50:04;;;;;;;5.05;4.55;;;;;;;25.10;28.92;99993.59;5095287;28;20207;-69
2023/05/24 05:52:35;;;;;;;9.85;4.15;;;;;;;24.63;30.19;99996.03;5108856;28;20207;-66
2023/05/24 05:55:02;;;;;;;7.40;4.40;;;;;;;24.20;30.27;99999.03;5110538;28;20206;-67
2023/05/24 05:57:30;;;;;;;5.82;4.10;;;;;;;23.78;31.01;100008.03;5108138;28;20291;-67
2023/05/24 06:00:00;;;;;;;5.55;4.25;;;;;;;23.48;31.53;100003.00;5105063;28;20565;-67
2023/05/24 06:02:28;;;;;;;6.82;4.18;;;;;;;23.05;32.39;100013.66;5108695;28;20215;-68
2023/05/24 06:04:56;;;;;;;6.22;3.90;;;;;;;22.67;32.98;100016.91;5108046;28;20207;-67
2023/05/24 06:07:25;;;;;;;13.40;3.80;;;;;;;22.82;33.23;100017.72;5102607;28;20204;-68
2023/05/24 06:09:52;;;;;;;6.18;4.47;;;;;;;23.08;32.98;100024.00;5102624;27;20217;-67
2023/05/24 06:12:20;;;;;;;5.22;4.00;;;;;;;23.39;33.04;100012.34;5111658;28;20208;-69
2023/05/24 06:14:49;;;;;;;8.95;4.38;;;;;;;24.28;32.10;100016.94;5104070;27;20230;-67
2023/05/24 06:17:22;;;;;;;8.20;4.35;;;;;;;25.25;29.87;100017.06;5099990;28;20731;-66
2023/05/24 06:19:52;;;;;;;7.63;4.55;;;;;;;25.57;29.58;100023.59;5105152;28;20280;-67
2023/05/24 06:22:20;;;;;;;8.27;4.45;;;;;;;25.67;29.27;100021.97;5103797;28;20207;-67
2023/05/24 06:24:49;;;;;;;6.75;4.03;;;;;;;26.41;28.72;100023.31;5109387;28;20199;-66
2023/05/24 06:27:18;;;;;;;6.82;3.92;;;;;;;27.26;27.26;100030.72;5104697;28;20237;-67
2023/05/24 06:29:47;;;;;;;10.30;3.80;;;;;;;27.43;26.52;100024.91;5111027;28;20233;-66
2023/05/24 06:32:16;;;;;;;5.03;4.05;;;;;;;27.11;26.56;100034.59;5107631;28;20334;-65
2023/05/24 06:34:45;;;;;;;9.52;4.30;;;;;;;26.67;27.15;100038.97;5109612;28;20204;-66
2023/05/24 06:37:14;;;;;;;5.75;4.10;;;;;;;26.64;27.46;100040.03;5107203;28;20311;-65
2023/05/24 06:39:42;;;;;;;7.25;3.90;;;;;;;27.02;27.54;100045.88;5101691;28;20196;-67
2023/05/24 06:42:10;;;;;;;5.18;3.85;;;;;;;28.45;25.42;100040.25;5099200;28;20208;-67
2023/05/24 06:44:38;;;;;;;9.02;4.45;;;;;;;30.71;22.89;100048.00;5107061;28;20218;-67
2023/05/24 06:47:08;;;;;;;4.72;3.92;;;;;;;32.23;20.51;100050.69;5107082;28;20207;-66
2023/05/24 06:49:36;;;;;;;5.15;4.35;;;;;;;32.51;20.02;100055.84;5093112;28;20220;-65
2023/05/24 06:52:07;;;;;;;4.18;3.75;;;;;;;32.66;20.16;100051.63;5087828;28;20311;-65
2023/05/24 06:54:36;;;;;;;6.90;4.07;;;;;;;33.97;19.44;100051.84;5111395;28;20257;-66
2023/05/24 06:57:04;;;;;;;5.68;3.95;;;;;;;34.65;18.25;100047.06;5097745;28;20331;-68
2023/05/24 06:59:32;;;;;;;7.15;3.92;;;;;;;34.07;18.64;100055.22;5110750;28;20207;-67
2023/05/24 07:02:00;;;;;;;7.40;3.83;;;;;;;34.22;18.88;100052.69;5100401;28;20358;-67
2023/05/24 07:04:31;;;;;;;10.63;4.15;;;;;;;35.15;18.49;100060.06;5102305;28;20257;-67
2023/05/24 07:06:59;;;;;;;6.53;4.25;;;;;;;36.95;16.07;100059.22;5103887;28;20666;-66
2023/05/24 07:09:28;;;;;;;7.85;4.10;;;;;;;37.60;15.66;100051.25;5107147;28;20311;-65
2023/05/24 07:11:56;;;;;;;5.47;3.88;;;;;;;38.69;15.40;100056.97;5108020;28;20268;-70
2023/05/24 07:14:26;;;;;;;5.68;4.00;;;;;;;40.16;13.50;100052.69;5101009;28;20249;-67
2023/05/24 07:16:56;;;;;;;7.78;3.97;;;;;;;40.96;13.21;100054.09;5112201;28;20196;-68
2023/05/24 07:19:27;;;;;;;6.20;4.10;;;;;;;40.82;13.38;100057.06;5111335;28;20688;-69
2023/05/24 07:21:56;;;;;;;5.95;3.75;;;;;;;39.93;13.78;100064.75;5110406;28;20199;-66
2023/05/24 07:24:24;;;;;;;6.95;3.47;;;;;;;38.54;13.95;100061.69;5102374;28;20780;-64
2023/05/24 07:26:55;;;;;;;7.53;3.80;;;;;;;35.36;16.54;100080.03;5099164;28;20204;-65
2023/05/24 07:29:23;;;;;;;5.03;3.70;;;;;;;32.66;19.39;100082.75;5102914;28;20670;-69
2023/05/24 07:31:51;;;;;;;4.05;3.58;;;;;;;30.69;21.26;100087.22;5111855;28;20360;-67
2023/05/24 07:34:21;;;;;;;5.53;4.43;;;;;;;29.40;23.19;100092.94;5111619;28;20200;-69
2023/05/24 07:36:49;;;;;;;6.45;3.95;;;;;;;28.25;25.00;100105.53;5114273;28;20580;-68
2023/05/24 07:39:17;;;;;;;6.32;4.07;;;;;;;27.38;26.42;100111.75;5115084;28;20265;-64
2023/05/24 07:41:45;;;;;;;6.10;3.95;;;;;;;27.55;26.41;100113.03;5114861;28;20207;-68
2023/05/24 07:44:14;;;;;;;6.15;3.92;;;;;;;27.98;25.10;100111.31;5112599;28;20556;-69
2023/05/24 07:46:42;;;;;;;7.07;4.50;;;;;;;27.96;25.97;100114.13;5111654;28;20226;-66
2023/05/24 07:49:10;;;;;;;9.48;4.30;;;;;;;29.92;24.04;100109.47;5111024;28;20223;-62
2023/05/24 07:51:38;;;;;;;6.75;4.10;;;;;;;32.38;20.77;100103.44;5112244;28;20697;-67
2023/05/24 07:54:06;;;;;;;5.40;4.00;;;;;;;32.81;20.24;100109.69;5113859;28;20202;-66
2023/05/24 07:56:35;;;;;;;6.22;4.10;;;;;;;32.79;20.68;100107.19;5114815;28;20200;-64
2023/05/24 07:59:03;;;;;;;7.45;4.50;;;;;;;32.95;20.16;100111.78;5113874;28;20567;-60
2023/05/24 08:01:34;;;;;;;7.60;4.50;;;;;;;32.74;20.02;100109.50;5114569;28;20192;-63
2023/05/24 08:04:07;;;;;;;6.25;4.13;;;;;;;32.42;20.61;100104.81;5114776;28;20203;-64
2023/05/24 08:06:35;;;;;;;4.28;3.88;;;;;;;31.95;21.74;100113.94;5114333;28;20207;-64
2023/05/24 08:09:04;;;;;;;6.55;4.40;;;;;;;30.97;22.30;100112.91;5109400;27;20216;-64
2023/05/24 08:11:32;;;;;;;4.35;3.83;;;;;;;30.27;23.61;100120.38;5109994;28;20203;-63
2023/05/24 08:14:00;;;;;;;4.05;3.63;;;;;;;29.55;24.46;100118.09;5114778;28;20204;-64
2023/05/24 08:16:28;;;;;;;6.53;4.07;;;;;;;28.79;25.42;100123.00;5113903;28;20654;-62
2023/05/24 08:18:57;;;;;;;7.18;4.72;;;;;;;28.16;26.37;100126.50;5113232;28;20211;-64
2023/05/24 08:21:26;;;;;;;4.35;3.75;;;;;;;27.75;27.25;100123.81;5114444;28;20574;-64
2023/05/24 08:23:54;;;;;;;4.88;4.25;;;;;;;27.48;27.65;100126.91;5103277;28;20315;-63
2023/05/24 08:26:23;;;;;;;7.70;4.05;;;;;;;27.53;28.31;100135.28;5110934;28;20200;-64
2023/05/24 08:28:51;;;;;;;6.25;3.85;;;;;;;27.57;28.24;100132.25;5111111;28;20207;-64
2023/05/24 08:31:19;;;;;;;9.40;3.83;;;;;;;27.42;27.86;100136.16;5106588;28;20196;-63
2023/05/24 08:33:49;;;;;;;5.72;3.70;;;;;;;27.08;28.22;100137.97;5099807;28;20781;-64
2023/05/24 08:36:18;;;;;;;6.03;4.03;;;;;;;26.95;28.79;100132.78;5111965;28;20669;-65
2023/05/24 08:38:46;;;;;;;3.95;3.60;;;;;;;26.84;28.18;100136.28;5108825;28;20265;-68
2023/05/24 08:41:14;;;;;;;4.40;3.90;;;;;;;26.60;29.34;100136.41;5105321;28;20673;-64
2023/05/24 08:43:43;;;;;;;5.38;4.20;;;;;;;26.56;30.77;100139.41;5109636;28;20215;-68
2023/05/24 08:46:12;;;;;;;5.25;4.20;;;;;;;26.67;29.70;100139.41;5105550;28;20204;-65
2023/05/24 08:48:45;;;;;;;6.55;4.40;;;;;;;26.70;30.24;100147.13;5102715;28;20211;-64
2023/05/24 08:51:15;;;;;;;7.43;3.88;;;;;;;26.82;29.32;100145.31;5110344;28;20212;-64
2023/05/24 08:53:47;;;;;;;4.47;4.07;;;;;;;27.00;29.22;100148.31;5110292;28;20239;-65
2023/05/24 08:56:17;;;;;;;8.75;3.65;;;;;;;27.22;28.81;100145.69;5109164;28;20195;-63
2023/05/24 08:58:46;;;;;;;5.82;4.15;;;;;;;27.36;28.82;100142.78;5113534;28;20204;-65
2023/05/24 09:01:14;;;;;;;5.90;3.78;;;;;;;27.26;28.82;100152.44;5108707;28;20314;-64
2023/05/24 09:03:43;;;;;;;7.53;3.78;;;;;;;27.02;29.42;100144.56;5105373;28;20290;-64
2023/05/24 09:06:13;;;;;;;5.00;3.97;;;;;;;26.80;29.18;100153.34;5109260;28;20200;-64
2023/05/24 09:08:45;;;;;;;4.85;3.95;;;;;;;26.74;29.44;100144.09;5111871;28;20208;-64
2023/05/24 09:11:15;;;;;;;7.05;3.97;;;;;;;26.85;29.85;100160.94;5106355;28;20269;-65
2023/05/24 09:13:45;;;;;;;5.57;3.65;;;;;;;26.96;29.54;100159.16;5109433;28;20207;-65
2023/05/24 09:16:13;;;;;;;4.88;3.85;;;;;;;27.17;28.73;100161.06;5110191;28;20203;-63
2023/05/24 09:18:42;;;;;;;5.38;3.50;;;;;;;27.34;29.23;100163.22;5112052;28;20200;-64
2023/05/24 09:21:11;;;;;;;5.55;3.20;;;;;;;27.09;28.33;100159.00;5111736;28;20653;-66
2023/05/24 09:23:41;;;;;;;4.60;4.00;;;;;;;26.77;29.15;100160.66;5106895;28;20218;-63
2023/05/24 09:26:10;;;;;;;5.95;3.40;;;;;;;26.38;29.17;100160.94;5108328;28;20659;-66
2023/05/24 09:28:40;;;;;;;5.22;3.50;;;;;;;26.04;29.47;100169.72;5107497;28;20210;-70
2023/05/24 09:31:09;;;;;;;5.93;3.35;;;;;;;25.65;29.63;100167.19;5100616;28;20216;-64
2023/05/24 09:33:39;;;;;;;6.22;3.65;;;;;;;25.52;30.51;100179.63;5112624;28;20247;-61
2023/05/24 09:36:08;;;;;;;3.90;3.50;;;;;;;25.47;30.49;100182.56;5107026;28;20193;-63
2023/05/24 09:38:36;;;;;;;8.70;3.85;;;;;;;25.45;30.69;100179.19;5110662;28;20296;-66
2023/05/24 09:41:06;;;;;;;8.23;3.88;;;;;;;25.36;30.94;100184.28;5112984;28;20203;-63
2023/05/24 09:43:47;;;;;;;7.35;4.22;;;;;;;25.43;30.95;100178.44;5111831;28;20208;-63
2023/05/24 09:46:17;;;;;;;4.72;3.67;;;;;;;25.54;30.56;100181.16;5112043;28;20204;-63
2023/05/24 09:48:57;;;;;;;6.32;3.88;;;;;;;25.66;30.50;100186.50;5111915;28;20191;-64
2023/05/24 09:51:25;;;;;;;5.05;3.83;;;;;;;25.71;30.25;100179.13;5108636;28;20245;-63
2023/05/24 09:54:01;;;;;;;5.85;3.70;;;;;;;25.65;30.23;100182.19;5101733;28;20720;-60
2023/05/24 09:56:29;;;;;;;6.22;3.58;;;;;;;25.75;30.79;100180.59;5107458;28;20207;-62
2023/05/24 09:59:05;;;;;;;5.72;4.25;;;;;;;25.91;30.99;100177.69;5108459;28;20212;-63
2023/05/24 10:01:34;;;;;;;5.32;4.00;;;;;;;25.98;30.51;100177.13;5101223;28;20192;-63
2023/05/24 10:04:05;;;;;;;4.38;3.35;;;;;;;26.14;30.34;100173.34;5104687;28;20730;-62
2023/05/24 10:06:37;;;;;;;6.60;3.80;;;;;;;26.42;29.73;100175.59;5109643;28;20719;-61
2023/05/24 10:09:08;;;;;;;4.68;3.75;;;;;;;26.72;29.57;100179.53;5101162;28;20196;-61
2023/05/24 10:11:37;;;;;;;6.00;3.72;;;;;;;26.97;29.87;100176.69;5110191;28;20212;-61
2023/05/24 10:14:07;;;;;;;5.63;3.65;;;;;;;27.07;29.89;100186.56;5110905;28;20207;-62
2023/05/24 10:16:36;;;;;;;7.63;4.30;;;;;;;26.82;29.70;100185.81;5112867;28;20713;-63
2023/05/24 10:19:05;;;;;;;11.98;5.95;;;;;;;26.55;31.52;100195.84;5110931;28;20200;-63
2023/05/24 10:21:39;;;;;;;10.05;5.78;;;;;;;26.26;32.07;100191.78;5112137;28;20200;-63
2023/05/24 10:24:11;;;;;;;7.40;5.03;;;;;;;25.98;33.19;100187.69;5101089;28;20680;-62
2023/05/24 10:26:41;;;;;;;12.13;5.45;;;;;;;25.73;34.34;100195.69;5102503;28;20626;-63
2023/05/24 10:29:22;;;;;;;17.38;7.03;;;;;;;25.80;34.43;100189.03;5102786;28;20261;-61
2023/05/24 10:31:53;;;;;;;13.10;5.82;;;;;;;25.86;34.12;100193.03;5111603;28;20239;-61
2023/05/24 10:34:21;;;;;;;7.47;5.03;;;;;;;25.80;34.27;100194.31;5111583;28;20200;-61
2023/05/24 10:36:50;;;;;;;17.25;5.75;;;;;;;25.79;33.95;100190.00;5111983;28;20629;-61
2023/05/24 10:39:21;;;;;;;9.50;5.10;;;;;;;25.79;33.66;100197.91;5110393;28;20716;-61
2023/05/24 10:41:49;;;;;;;11.82;5.43;;;;;;;25.77;33.86;100189.22;5112103;28;20218;-60
2023/05/24 10:44:20;;;;;;;9.60;4.93;;;;;;;25.77;34.20;100194.50;5111916;28;20200;-61
2023/05/24 10:47:07;;;;;;;10.68;5.20;;;;;;;25.86;34.13;100195.69;5110401;28;20283;-61
2023/05/24 10:49:36;;;;;;;8.55;4.97;;;;;;;25.92;33.67;100190.78;5110489;28;20284;-60
2023/05/24 10:52:08;;;;;;;8.63;4.88;;;;;;;26.02;34.22;100202.34;5111474;28;20216;-60
2023/05/24 10:54:37;;;;;;;10.90;5.10;;;;;;;26.22;33.60;100203.53;5110886;28;20299;-63
2023/05/24 10:57:09;;;;;;;7.15;4.95;;;;;;;26.37;33.06;100203.34;5111705;28;20206;-62
2023/05/24 10:59:40;;;;;;;9.95;5.22;;;;;;;26.48;33.02;100203.41;5110610;28;20204;-64
2023/05/24 11:02:12;;;;;;;8.50;4.85;;;;;;;26.44;32.42;100210.69;5111366;28;20199;-62
2023/05/24 11:04:43;;;;;;;10.98;4.75;;;;;;;26.41;32.29;100204.78;5110610;28;20207;-62
2023/05/24 11:07:12;;;;;;;12.70;4.95;;;;;;;26.40;32.58;100209.25;5111631;28;20746;-60
2023/05/24 11:09:45;;;;;;;7.18;5.00;;;;;;;26.33;32.65;100208.00;5110528;28;20207;-61
2023/05/24 11:12:16;;;;;;;14.55;5.07;;;;;;;26.39;32.21;100209.34;5111329;28;20306;-61
2023/05/24 11:14:50;;;;;;;5.85;4.40;;;;;;;26.37;31.69;100209.47;5111083;28;20214;-65
2023/05/24 11:17:20;;;;;;;12.23;5.55;;;;;;;26.44;32.24;100215.16;5109385;28;20196;-63
2023/05/24 11:19:51;;;;;;;11.20;4.75;;;;;;;26.35;31.96;100215.81;5108188;28;20210;-60
2023/05/24 11:22:21;;;;;;;7.95;5.22;;;;;;;26.17;32.72;100210.94;5109752;28;20299;-60
2023/05/24 11:24:51;;;;;;;9.00;5.35;;;;;;;26.10;33.27;100211.50;5111472;28;20200;-61
2023/05/24 11:27:20;;;;;;;7.78;5.28;;;;;;;25.97;33.18;100217.69;5111401;28;20642;-63
2023/05/24 11:29:49;;;;;;;7.68;5.38;;;;;;;25.81;33.50;100216.25;5109845;28;20211;-62
2023/05/24 11:32:19;;;;;;;8.75;5.00;;;;;;;25.65;33.76;100217.34;5110570;28;20236;-62
2023/05/24 11:34:48;;;;;;;11.57;5.70;;;;;;;25.58;34.17;100221.38;5110196;28;20200;-62
2023/05/24 11:37:17;;;;;;;11.52;5.22;;;;;;;25.51;34.13;100226.22;5110925;28;20204;-61
2023/05/24 11:39:51;;;;;;;10.98;5.50;;;;;;;25.16;34.32;100228.72;5110165;28;20291;-61